Time;durP1;ratioP1;P1;durP2;ratioP2;P2;SDS_P1;SDS_P2;PMS_P1;PMS_P2;Temp;Humidity;BMP_temperature;BMP_pressure;BME280_temperature;BME280_humidity;BME280_pressure;Samples;Min_cycle;Max_cycle;Signal;HPM_P1;HPM_P2
2021/08/29 00:01:39;;;;;;;11.40;4.05;;;15.30;79.40;;;;;;5032779;28;20068;-89
2021/08/29 00:04:06;;;;;;;14.88;4.32;;;15.30;79.40;;;;;;5032321;28;20056;-89
2021/08/29 00:06:33;;;;;;;11.10;4.07;;;15.20;79.30;;;;;;5032306;28;20103;-90
2021/08/29 00:09:04;;;;;;;10.07;4.13;;;15.20;79.30;;;;;;5032886;28;20053;-90
2021/08/29 00:11:31;;;;;;;8.27;3.25;;;15.20;79.30;;;;;;5033846;28;20463;-89
2021/08/29 00:13:58;;;;;;;14.25;3.88;;;15.20;79.40;;;;;;5033828;28;20049;-90
2021/08/29 00:16:25;;;;;;;11.80;4.20;;;15.10;79.40;;;;;;5032533;28;20099;-90
2021/08/29 00:18:52;;;;;;;12.38;4.20;;;15.20;79.40;;;;;;5032129;28;20068;-89
2021/08/29 00:21:19;;;;;;;10.20;3.75;;;15.10;79.40;;;;;;5032441;28;20045;-89
2021/08/29 00:23:46;;;;;;;10.50;3.97;;;15.10;79.50;;;;;;5032356;28;20049;-89
2021/08/29 00:26:13;;;;;;;11.05;3.70;;;15.00;79.50;;;;;;5034504;28;20103;-89
2021/08/29 00:28:40;;;;;;;13.77;4.00;;;15.00;79.60;;;;;;5030938;28;20053;-89
2021/08/29 00:31:07;;;;;;;9.68;3.65;;;15.00;79.60;;;;;;5032072;28;20548;-87
2021/08/29 00:33:34;;;;;;;12.23;3.80;;;15.00;79.70;;;;;;5031774;28;20056;-89
2021/08/29 00:36:00;;;;;;;14.55;3.78;;;14.90;79.60;;;;;;5032292;28;20048;-89
2021/08/29 00:38:27;;;;;;;11.18;3.83;;;14.90;79.60;;;;;;5033537;28;20061;-88
2021/08/29 00:40:54;;;;;;;11.02;4.15;;;14.90;79.60;;;;;;5033033;28;20068;-89
2021/08/29 00:43:23;;;;;;;11.65;3.58;;;14.90;79.60;;;;;;5032091;28;20049;-89
2021/08/29 00:45:53;;;;;;;13.25;4.18;;;14.90;79.60;;;;;;5032022;28;20103;-88
2021/08/29 00:48:20;;;;;;;9.85;3.78;;;14.90;79.50;;;;;;5031721;28;20045;-88
2021/08/29 00:50:48;;;;;;;9.27;3.30;;;14.90;79.40;;;;;;5031838;28;20108;-88
2021/08/29 00:53:16;;;;;;;14.20;3.65;;;14.90;79.40;;;;;;5033752;28;20049;-88
2021/08/29 00:55:44;;;;;;;15.68;4.25;;;14.90;79.40;;;;;;5031727;28;20103;-89
2021/08/29 00:58:11;;;;;;;12.60;4.32;;;14.90;79.40;;;;;;5031685;28;20103;-90
2021/08/29 01:00:41;;;;;;;9.93;3.70;;;14.80;79.40;;;;;;5031664;28;20474;-88
2021/08/29 01:03:15;;;;;;;7.53;3.55;;;14.80;79.40;;;;;;5031383;28;20045;-89
2021/08/29 01:06:06;;;;;;;10.00;4.10;;;14.80;79.50;;;;;;5032183;28;20060;-89
2021/08/29 01:08:39;;;;;;;11.63;3.90;;;14.80;79.50;;;;;;5029959;28;20080;-89
2021/08/29 01:11:13;;;;;;;9.23;3.53;;;14.70;79.60;;;;;;5031621;28;20049;-88
2021/08/29 01:13:44;;;;;;;;;;;14.70;79.60;;;;;;5031921;28;20054;-88
2021/08/29 01:16:15;;;;;;;17.60;4.35;;;14.70;79.60;;;;;;5031099;28;19921;-90
2021/08/29 01:18:45;;;;;;;9.85;3.65;;;14.70;79.70;;;;;;5029401;28;20056;-89
2021/08/29 01:21:13;;;;;;;9.68;4.05;;;14.70;79.70;;;;;;5063253;28;20052;-88
2021/08/29 01:23:45;;;;;;;11.85;3.97;;;14.60;79.70;;;;;;5031283;28;20072;-89
2021/08/29 01:26:20;;;;;;;8.07;3.63;;;14.60;79.70;;;;;;5033264;28;20057;-89
2021/08/29 01:28:59;;;;;;;11.63;3.80;;;14.60;79.70;;;;;;5031055;28;20111;-88
2021/08/29 01:31:28;;;;;;;12.15;3.45;;;14.60;79.60;;;;;;5028418;28;20566;-88
2021/08/29 01:34:07;;;;;;;10.82;3.63;;;14.60;79.60;;;;;;5030942;28;20192;-88
2021/08/29 01:36:37;;;;;;;14.25;4.03;;;14.60;79.50;;;;;;5030943;28;20045;-89
2021/08/29 01:39:05;;;;;;;9.25;3.65;;;14.60;79.50;;;;;;5031017;28;20045;-89
2021/08/29 01:41:36;;;;;;;13.30;4.32;;;14.60;79.50;;;;;;5032199;28;20095;-88
2021/08/29 01:44:04;;;;;;;11.55;3.85;;;14.60;79.50;;;;;;5031619;28;20570;-89
2021/08/29 01:46:34;;;;;;;10.23;3.80;;;14.60;79.50;;;;;;5027905;28;20459;-87
2021/08/29 01:49:07;;;;;;;15.13;4.40;;;14.50;79.50;;;;;;5041928;28;20045;-89
2021/08/29 01:51:35;;;;;;;9.68;4.10;;;14.50;79.40;;;;;;5030481;28;20050;-89
2021/08/29 01:54:02;;;;;;;9.30;3.90;;;14.50;79.40;;;;;;5030721;28;20512;-88
2021/08/29 01:56:29;;;;;;;8.32;3.45;;;14.50;79.40;;;;;;5032146;28;20045;-88
2021/08/29 01:58:56;;;;;;;13.20;4.32;;;14.40;79.40;;;;;;5031420;28;20049;-89
2021/08/29 02:01:23;;;;;;;9.38;4.18;;;14.40;79.50;;;;;;5030322;28;20049;-88
2021/08/29 02:03:50;;;;;;;11.27;3.80;;;14.40;79.60;;;;;;5030592;28;20050;-89
2021/08/29 02:06:36;;;;;;;15.70;4.43;;;14.40;79.80;;;;;;5029656;28;20400;-90
2021/08/29 02:09:09;;;;;;;9.48;3.75;;;14.40;79.90;;;;;;5015172;28;20526;-88
2021/08/29 02:11:46;;;;;;;10.95;4.20;;;14.40;80.10;;;;;;5031014;28;20072;-88
2021/08/29 02:14:27;;;;;;;10.80;3.80;;;14.40;80.30;;;;;;5031270;28;20046;-88
2021/08/29 02:16:55;;;;;;;15.00;5.03;;;14.30;80.50;;;;;;5029910;28;20111;-89
2021/08/29 02:19:25;;;;;;;11.93;4.43;;;14.30;80.70;;;;;;5030280;28;20049;-89
2021/08/29 02:21:52;;;;;;;14.52;5.10;;;14.40;81.10;;;;;;5030288;28;20049;-88
2021/08/29 02:24:28;;;;;;;15.68;4.38;;;14.30;81.80;;;;;;5029091;28;20046;-89
2021/08/29 02:26:56;;;;;;;16.20;4.38;;;14.40;81.90;;;;;;5015111;28;20050;-87
2021/08/29 02:29:23;;;;;;;13.25;4.80;;;14.40;82.10;;;;;;5032110;28;20585;-89
2021/08/29 02:31:50;;;;;;;10.48;4.00;;;14.40;82.20;;;;;;5027771;28;20045;-88
2021/08/29 02:34:18;;;;;;;11.75;4.30;;;14.40;82.30;;;;;;5030104;28;20507;-89
2021/08/29 02:36:47;;;;;;;10.50;4.13;;;14.40;82.40;;;;;;5030244;28;20053;-87
2021/08/29 02:39:16;;;;;;;8.45;4.10;;;14.50;82.30;;;;;;5030190;28;20103;-90
2021/08/29 02:41:44;;;;;;;9.48;3.50;;;14.60;82.30;;;;;;5030437;28;20053;-89
2021/08/29 02:44:11;;;;;;;9.60;3.58;;;14.60;82.30;;;;;;5030819;28;20095;-89
2021/08/29 02:46:38;;;;;;;10.43;3.92;;;14.60;82.30;;;;;;5030068;28;20053;-87
2021/08/29 02:49:05;;;;;;;9.30;3.55;;;14.60;82.30;;;;;;5029906;28;20577;-88
2021/08/29 02:51:33;;;;;;;11.00;4.40;;;14.70;82.30;;;;;;5030008;28;20062;-88
2021/08/29 02:54:00;;;;;;;12.82;4.30;;;14.70;82.30;;;;;;5030075;28;20049;-88
2021/08/29 02:56:30;;;;;;;12.65;3.60;;;14.70;82.30;;;;;;5031596;28;20103;-89
2021/08/29 02:58:57;;;;;;;8.13;3.83;;;14.80;82.40;;;;;;5030522;28;20080;-89
2021/08/29 03:01:24;;;;;;;11.63;3.92;;;14.80;82.40;;;;;;5030058;28;20172;-91
2021/08/29 03:03:51;;;;;;;10.95;3.60;;;14.80;82.50;;;;;;5028452;28;20046;-88
2021/08/29 03:06:18;;;;;;;9.00;3.70;;;14.80;82.60;;;;;;5029925;28;20092;-89
2021/08/29 03:08:45;;;;;;;8.23;3.47;;;14.80;82.60;;;;;;5030259;28;20115;-87
2021/08/29 03:11:12;;;;;;;12.70;3.30;;;14.80;82.70;;;;;;5031921;28;20049;-87
2021/08/29 03:13:40;;;;;;;7.80;3.10;;;14.80;82.70;;;;;;5029536;28;20049;-87
2021/08/29 03:16:07;;;;;;;7.22;3.15;;;14.80;82.70;;;;;;5029691;28;20582;-89
2021/08/29 03:18:34;;;;;;;7.20;3.40;;;14.90;82.70;;;;;;5029677;28;20085;-90
2021/08/29 03:21:02;;;;;;;6.68;2.92;;;14.90;82.60;;;;;;5029854;28;20045;-90
2021/08/29 03:23:29;;;;;;;6.47;2.97;;;14.90;82.60;;;;;;5030988;28;20100;-90
2021/08/29 03:25:56;;;;;;;7.30;3.22;;;14.90;82.50;;;;;;5030550;28;20100;-90
2021/08/29 03:28:23;;;;;;;9.15;3.13;;;14.90;82.50;;;;;;5028385;28;20180;-90
2021/08/29 03:30:54;;;;;;;7.07;2.90;;;14.90;82.50;;;;;;5029831;28;20046;-91
2021/08/29 03:33:24;;;;;;;7.75;3.47;;;14.90;82.40;;;;;;5029796;28;20056;-90
2021/08/29 03:35:53;;;;;;;6.85;3.92;;;14.90;82.30;;;;;;5029764;28;20041;-89
2021/08/29 03:38:22;;;;;;;8.40;3.53;;;14.90;82.20;;;;;;5027541;28;20057;-90
2021/08/29 03:40:51;;;;;;;9.38;4.00;;;14.90;82.10;;;;;;5029598;28;20463;-90
2021/08/29 03:43:18;;;;;;;6.57;3.10;;;14.90;81.90;;;;;;5031835;28;20104;-88
2021/08/29 03:45:45;;;;;;;7.90;3.40;;;14.90;81.80;;;;;;5033335;28;20076;-83
2021/08/29 03:48:12;;;;;;;9.63;3.58;;;14.90;81.80;;;;;;5033265;28;20451;-90
2021/08/29 03:50:39;;;;;;;5.80;3.10;;;14.80;81.70;;;;;;5033120;28;20049;-91
2021/08/29 03:53:06;;;;;;;9.93;4.15;;;14.80;81.60;;;;;;5033168;28;20565;-91
2021/08/29 03:55:33;;;;;;;11.93;3.78;;;14.80;81.60;;;;;;5032705;28;20054;-89
2021/08/29 03:58:01;;;;;;;8.75;3.67;;;14.80;81.60;;;;;;5032833;28;20045;-89
2021/08/29 04:00:28;;;;;;;6.10;3.42;;;14.70;81.70;;;;;;5032943;28;20057;-88
2021/08/29 04:02:56;;;;;;;8.13;3.58;;;14.80;81.70;;;;;;5033260;28;20049;-87
2021/08/29 04:05:23;;;;;;;11.77;3.60;;;14.70;81.80;;;;;;5035085;28;20068;-91
2021/08/29 04:07:51;;;;;;;12.30;4.05;;;14.70;81.90;;;;;;5031665;28;20050;-89
2021/08/29 04:10:20;;;;;;;9.13;3.10;;;14.70;82.00;;;;;;5032419;28;20084;-88
2021/08/29 04:12:48;;;;;;;8.00;3.58;;;14.70;82.10;;;;;;5032500;28;20527;-88
2021/08/29 04:15:16;;;;;;;10.30;3.88;;;14.80;82.20;;;;;;5032620;28;20107;-88
2021/08/29 04:17:43;;;;;;;7.28;3.67;;;14.80;82.30;;;;;;5032760;28;20041;-87
2021/08/29 04:20:13;;;;;;;10.57;3.67;;;14.80;82.30;;;;;;5033523;28;20451;-87
2021/08/29 04:22:40;;;;;;;10.27;4.65;;;14.80;82.50;;;;;;5030904;28;20053;-86
2021/08/29 04:25:08;;;;;;;9.25;4.50;;;14.80;82.50;;;;;;5030817;28;20522;-87
2021/08/29 04:27:35;;;;;;;9.05;4.05;;;14.80;82.70;;;;;;5032304;28;20057;-87
2021/08/29 04:30:03;;;;;;;6.78;3.30;;;14.80;82.80;;;;;;5032445;28;20045;-87
2021/08/29 04:32:31;;;;;;;7.25;3.78;;;14.80;82.90;;;;;;5033598;28;20054;-87
2021/08/29 04:34:58;;;;;;;10.00;4.50;;;14.80;82.90;;;;;;5033253;28;20103;-87
2021/08/29 04:37:25;;;;;;;15.80;4.18;;;14.80;83.10;;;;;;5031035;28;20060;-87
2021/08/29 04:39:52;;;;;;;9.90;3.30;;;14.90;83.10;;;;;;5031756;28;20100;-87
2021/08/29 04:42:19;;;;;;;8.93;4.03;;;14.90;83.10;;;;;;5032213;28;20042;-87
2021/08/29 04:44:45;;;;;;;8.73;4.03;;;14.90;83.20;;;;;;5032445;28;20064;-86
2021/08/29 04:47:12;;;;;;;10.65;4.53;;;14.90;83.30;;;;;;5032846;28;20099;-88
2021/08/29 04:49:39;;;;;;;10.90;4.70;;;14.90;83.30;;;;;;5031946;28;20049;-88
2021/08/29 04:52:06;;;;;;;9.52;4.60;;;14.90;83.30;;;;;;5031659;28;20107;-87
2021/08/29 04:54:33;;;;;;;7.93;3.78;;;14.90;83.30;;;;;;5030333;28;20498;-86
2021/08/29 04:57:00;;;;;;;7.85;3.55;;;14.90;83.40;;;;;;5032067;28;20053;-87
2021/08/29 04:59:26;;;;;;;8.45;4.35;;;14.90;83.30;;;;;;5033637;28;20065;-86
2021/08/29 05:01:53;;;;;;;11.95;4.47;;;14.90;83.30;;;;;;5030946;28;20107;-87
2021/08/29 05:04:21;;;;;;;9.48;4.05;;;14.90;83.30;;;;;;5031613;28;20041;-87
2021/08/29 05:06:48;;;;;;;8.85;4.15;;;14.90;83.30;;;;;;5031527;28;20049;-87
2021/08/29 05:09:15;;;;;;;7.80;4.45;;;15.00;83.20;;;;;;5031241;28;20048;-87
2021/08/29 05:11:42;;;;;;;6.43;3.25;;;15.00;83.20;;;;;;5031494;28;20049;-87
2021/08/29 05:14:08;;;;;;;8.38;3.92;;;15.00;83.20;;;;;;5033363;28;20049;-86
2021/08/29 05:16:35;;;;;;;11.65;4.13;;;15.00;83.20;;;;;;5031291;28;20041;-87
2021/08/29 05:19:02;;;;;;;8.10;4.15;;;15.00;83.20;;;;;;5031340;28;20049;-87
2021/08/29 05:21:29;;;;;;;12.27;4.43;;;15.00;83.20;;;;;;5031278;28;20045;-88
2021/08/29 05:23:56;;;;;;;8.02;4.20;;;15.00;83.20;;;;;;5029893;28;20053;-87
2021/08/29 05:26:23;;;;;;;9.65;4.40;;;15.10;83.20;;;;;;5033424;28;20045;-86
2021/08/29 05:28:50;;;;;;;9.50;5.22;;;15.10;83.20;;;;;;5029795;28;20107;-87
2021/08/29 05:31:17;;;;;;;9.38;4.78;;;15.00;83.10;;;;;;5031030;28;20156;-87
2021/08/29 05:33:44;;;;;;;7.53;4.35;;;15.10;83.20;;;;;;5030939;28;20056;-87
2021/08/29 05:36:11;;;;;;;8.48;5.00;;;15.00;83.20;;;;;;5031123;28;20045;-87
2021/08/29 05:38:37;;;;;;;7.90;4.20;;;15.10;83.30;;;;;;5031738;28;20046;-86
2021/08/29 05:41:04;;;;;;;11.70;4.88;;;15.10;83.30;;;;;;5031170;28;20119;-88
2021/08/29 05:43:31;;;;;;;14.95;5.93;;;15.10;83.30;;;;;;5030852;28;20076;-87
2021/08/29 05:45:58;;;;;;;15.38;5.93;;;15.00;83.40;;;;;;5030743;28;20045;-87
2021/08/29 05:48:25;;;;;;;13.57;5.30;;;15.00;83.40;;;;;;5030841;28;20562;-87
2021/08/29 05:50:52;;;;;;;9.25;4.68;;;15.00;83.40;;;;;;5030725;28;20558;-86
2021/08/29 05:53:19;;;;;;;13.68;5.15;;;15.10;83.40;;;;;;5032425;28;20084;-88
2021/08/29 05:55:46;;;;;;;9.82;4.65;;;15.10;83.40;;;;;;5058227;28;20602;-86
2021/08/29 05:58:13;;;;;;;16.90;6.35;;;15.10;83.50;;;;;;5030643;28;20049;-87
2021/08/29 06:00:39;;;;;;;10.75;5.80;;;15.10;83.50;;;;;;5030532;28;20053;-87
2021/08/29 06:03:06;;;;;;;9.30;5.47;;;15.10;83.50;;;;;;5030633;28;20511;-86
2021/08/29 06:05:33;;;;;;;12.55;5.72;;;15.10;83.60;;;;;;5031220;28;20503;-87
2021/08/29 06:08:03;;;;;;;11.30;5.50;;;15.10;83.60;;;;;;5031886;28;20099;-87
2021/08/29 06:10:30;;;;;;;12.00;5.80;;;15.20;83.60;;;;;;5030412;28;20096;-87
2021/08/29 06:12:57;;;;;;;10.82;6.22;;;15.20;83.60;;;;;;5030336;28;20041;-87
2021/08/29 06:15:24;;;;;;;12.90;6.10;;;15.20;83.60;;;;;;5030454;28;20132;-86
2021/08/29 06:17:51;;;;;;;8.05;5.18;;;15.20;83.60;;;;;;5029754;28;20045;-86
2021/08/29 06:20:18;;;;;;;12.25;5.93;;;15.20;83.70;;;;;;5031893;28;20120;-87
2021/08/29 06:22:45;;;;;;;14.70;5.80;;;15.20;83.70;;;;;;5030232;28;20049;-86
2021/08/29 06:25:12;;;;;;;11.80;5.82;;;15.20;83.70;;;;;;5030164;28;20076;-87
2021/08/29 06:27:39;;;;;;;10.48;5.10;;;15.30;83.70;;;;;;5030237;28;20045;-86
2021/08/29 06:30:06;;;;;;;22.73;5.90;;;15.30;83.70;;;;;;5030482;28;20091;-88
2021/08/29 06:32:33;;;;;;;10.93;5.35;;;15.30;83.70;;;;;;5031216;28;20049;-87
2021/08/29 06:35:00;;;;;;;14.50;6.18;;;15.30;83.70;;;;;;5031126;28;20049;-87
2021/08/29 06:37:26;;;;;;;14.68;6.07;;;15.30;83.70;;;;;;5030017;28;20049;-87
2021/08/29 06:39:53;;;;;;;10.13;5.50;;;15.30;83.70;;;;;;5030068;28;20045;-87
2021/08/29 06:42:20;;;;;;;12.18;5.40;;;15.40;83.70;;;;;;5029029;28;20515;-87
2021/08/29 06:44:47;;;;;;;13.88;6.60;;;15.40;83.70;;;;;;5030317;28;20080;-86
2021/08/29 06:47:14;;;;;;;11.13;5.85;;;15.40;83.70;;;;;;5032081;28;20104;-88
2021/08/29 06:49:41;;;;;;;13.75;5.85;;;15.40;83.60;;;;;;5028395;28;20096;-89
2021/08/29 06:52:07;;;;;;;18.10;6.28;;;15.50;83.60;;;;;;5029789;28;20046;-87
2021/08/29 06:54:34;;;;;;;10.38;5.65;;;15.50;83.60;;;;;;5029957;28;20104;-88
2021/08/29 06:57:01;;;;;;;10.88;5.43;;;15.50;83.60;;;;;;5028625;28;20042;-87
2021/08/29 06:59:28;;;;;;;14.35;5.32;;;15.50;83.60;;;;;;5031266;28;20096;-89
2021/08/29 07:01:55;;;;;;;13.00;5.85;;;15.50;83.60;;;;;;5030519;28;20045;-88
2021/08/29 07:04:23;;;;;;;11.95;5.72;;;15.60;83.60;;;;;;5030336;28;20053;-88
2021/08/29 07:06:49;;;;;;;13.52;6.32;;;15.50;83.50;;;;;;5032273;28;20049;-88
2021/08/29 07:09:17;;;;;;;12.50;5.85;;;15.50;83.50;;;;;;5032161;28;20061;-87
2021/08/29 07:11:44;;;;;;;13.43;6.13;;;15.60;83.50;;;;;;5032415;28;20049;-87
2021/08/29 07:14:11;;;;;;;15.50;6.43;;;15.60;83.60;;;;;;5032179;28;20050;-88
2021/08/29 07:16:38;;;;;;;10.98;5.82;;;15.60;83.60;;;;;;5016723;28;20049;-87
2021/08/29 07:19:05;;;;;;;11.32;6.07;;;15.60;83.60;;;;;;5029171;28;20053;-90
2021/08/29 07:21:32;;;;;;;18.33;6.55;;;15.60;83.60;;;;;;5033336;28;20042;-88
2021/08/29 07:23:59;;;;;;;20.58;6.13;;;15.60;83.50;;;;;;5031516;28;20467;-87
2021/08/29 07:26:25;;;;;;;14.23;6.13;;;15.60;83.60;;;;;;5035919;28;20041;-88
2021/08/29 07:28:52;;;;;;;10.98;5.70;;;15.70;83.60;;;;;;5031793;28;20323;-87
2021/08/29 07:31:19;;;;;;;10.27;5.38;;;15.70;83.60;;;;;;5027162;28;20045;-87
2021/08/29 07:33:46;;;;;;;11.00;5.95;;;15.70;83.70;;;;;;5032873;28;20100;-89
2021/08/29 07:36:13;;;;;;;12.30;6.25;;;15.80;83.70;;;;;;5031385;28;20092;-88
2021/08/29 07:38:40;;;;;;;14.23;6.82;;;15.80;83.70;;;;;;5032859;28;20099;-85
2021/08/29 07:41:07;;;;;;;11.30;5.55;;;15.90;83.70;;;;;;5035266;28;20053;-89
2021/08/29 07:43:34;;;;;;;8.85;5.07;;;15.90;83.70;;;;;;5030649;28;20053;-85
2021/08/29 07:46:02;;;;;;;13.73;5.72;;;15.90;83.70;;;;;;5031931;28;20050;-87
2021/08/29 07:48:29;;;;;;;11.60;6.00;;;15.90;83.70;;;;;;5032361;28;20423;-86
2021/08/29 07:50:56;;;;;;;11.75;6.15;;;16.00;83.70;;;;;;5031484;28;20058;-86
2021/08/29 07:53:23;;;;;;;10.63;6.45;;;16.00;83.70;;;;;;5034557;28;20049;-87
2021/08/29 07:55:50;;;;;;;14.25;6.85;;;16.00;83.70;;;;;;5030009;28;20499;-88
2021/08/29 07:58:18;;;;;;;10.95;5.45;;;16.00;83.70;;;;;;5032579;28;20100;-88
2021/08/29 08:00:45;;;;;;;10.52;5.13;;;16.00;83.70;;;;;;5030568;28;20135;-87
2021/08/29 08:03:13;;;;;;;14.02;5.90;;;16.00;83.60;;;;;;5031220;28;20056;-87
2021/08/29 08:05:40;;;;;;;14.55;6.53;;;16.10;83.60;;;;;;5032588;28;20107;-86
2021/08/29 08:08:07;;;;;;;12.02;5.68;;;16.10;83.70;;;;;;5034189;28;20507;-88
2021/08/29 08:10:34;;;;;;;11.80;6.18;;;16.10;83.70;;;;;;5032354;28;20104;-86
2021/08/29 08:13:00;;;;;;;11.23;5.70;;;16.20;83.60;;;;;;5031047;28;20094;-86
2021/08/29 08:15:28;;;;;;;10.93;5.72;;;16.20;83.60;;;;;;5026085;28;20534;-89
2021/08/29 08:17:55;;;;;;;12.45;5.55;;;16.20;83.50;;;;;;5033438;28;20049;-88
2021/08/29 08:20:22;;;;;;;13.02;6.10;;;16.20;83.20;;;;;;5046835;28;20050;-89
2021/08/29 08:22:49;;;;;;;12.98;5.75;;;16.20;83.10;;;;;;5045851;28;20046;-89
2021/08/29 08:25:16;;;;;;;14.93;5.38;;;16.20;83.20;;;;;;5020928;28;20095;-92
2021/08/29 08:27:43;;;;;;;12.32;4.65;;;16.20;83.30;;;;;;5057554;28;20042;-90
2021/08/29 08:30:11;;;;;;;12.40;4.80;;;16.30;83.40;;;;;;5063273;28;20092;-88
2021/08/29 08:32:38;;;;;;;12.38;4.40;;;16.30;83.50;;;;;;5013283;28;20054;-89
2021/08/29 08:35:05;;;;;;;16.95;4.57;;;16.30;83.50;;;;;;5046434;28;20057;-89
2021/08/29 08:37:32;;;;;;;14.80;4.22;;;16.30;83.50;;;;;;5026753;28;20041;-89
2021/08/29 08:39:59;;;;;;;9.15;3.42;;;16.30;83.40;;;;;;5022173;28;20049;-88
2021/08/29 08:42:26;;;;;;;12.63;3.53;;;16.30;83.30;;;;;;5014695;28;20046;-88
2021/08/29 08:44:54;;;;;;;10.02;3.90;;;16.30;83.30;;;;;;5016715;28;20107;-90
2021/08/29 08:47:21;;;;;;;10.77;3.47;;;16.20;83.20;;;;;;5017059;28;20057;-88
2021/08/29 08:49:48;;;;;;;15.48;4.18;;;16.30;83.10;;;;;;5032685;28;20427;-86
2021/08/29 08:52:19;;;;;;;12.35;3.78;;;16.30;83.00;;;;;;5031188;28;20053;-87
2021/08/29 08:54:47;;;;;;;15.98;3.65;;;16.30;83.00;;;;;;5029862;28;20111;-87
2021/08/29 08:57:17;;;;;;;11.02;3.58;;;16.30;83.00;;;;;;5016158;28;20046;-88
2021/08/29 08:59:48;;;;;;;11.98;3.63;;;16.30;83.10;;;;;;5046165;28;20045;-87
2021/08/29 09:02:23;;;;;;;7.75;3.30;;;16.30;83.20;;;;;;5033168;28;20045;-87
2021/08/29 09:04:52;;;;;;;9.93;3.10;;;16.30;83.30;;;;;;5031768;28;20057;-86
2021/08/29 09:07:20;;;;;;;10.07;3.13;;;16.40;83.20;;;;;;5021574;28;20050;-86
2021/08/29 09:09:47;;;;;;;6.68;2.85;;;16.30;83.20;;;;;;5017731;28;20503;-88
2021/08/29 09:12:14;;;;;;;8.23;3.53;;;16.30;82.80;;;;;;5019001;28;20420;-87
2021/08/29 09:14:47;;;;;;;6.28;2.80;;;16.30;82.70;;;;;;5014329;28;20053;-85
2021/08/29 09:17:40;;;;;;;6.00;3.22;;;16.30;82.80;;;;;;5019326;28;20072;-86
2021/08/29 09:20:28;;;;;;;10.27;3.63;;;16.40;82.90;;;;;;5016161;28;20536;-88
2021/08/29 09:23:00;;;;;;;9.40;3.20;;;16.40;82.90;;;;;;5030505;28;20049;-89
2021/08/29 09:25:30;;;;;;;8.10;3.35;;;16.40;82.90;;;;;;5020684;28;20053;-88
2021/08/29 09:28:02;;;;;;;9.95;3.08;;;16.40;82.80;;;;;;5019925;28;20593;-88
2021/08/29 09:30:31;;;;;;;11.60;3.85;;;16.40;82.80;;;;;;5019682;28;20056;-89
2021/08/29 09:33:00;;;;;;;9.77;3.67;;;16.40;82.80;;;;;;5060871;28;20053;-90
2021/08/29 09:35:30;;;;;;;10.23;3.55;;;16.60;83.00;;;;;;5061211;28;20057;-90
2021/08/29 09:37:59;;;;;;;12.98;3.50;;;16.70;83.30;;;;;;5051643;28;20464;-89
2021/08/29 09:40:31;;;;;;;10.38;3.03;;;16.90;83.30;;;;;;5021523;28;20064;-89
2021/08/29 09:43:00;;;;;;;14.02;3.40;;;17.00;83.30;;;;;;5028778;28;20056;-88
2021/08/29 09:45:36;;;;;;;12.45;3.42;;;17.20;83.30;;;;;;5055973;28;20053;-89
2021/08/29 09:48:13;;;;;;;12.68;3.40;;;17.40;82.90;;;;;;5045220;28;20042;-90
2021/08/29 09:50:44;;;;;;;10.57;3.42;;;17.60;82.60;;;;;;5028728;28;20133;-90
2021/08/29 09:53:20;;;;;;;16.90;4.05;;;17.80;82.40;;;;;;5065394;28;20049;-89
2021/08/29 09:55:48;;;;;;;8.18;2.92;;;17.90;81.70;;;;;;5065308;28;20056;-89
2021/08/29 09:58:32;;;;;;;10.80;2.97;;;18.10;81.10;;;;;;5017526;28;20046;-88
2021/08/29 10:01:23;;;;;;;7.07;3.42;;;18.40;81.00;;;;;;5026499;28;20053;-90
2021/08/29 10:03:51;;;;;;;11.40;3.20;;;18.60;80.30;;;;;;5023347;28;20053;-90
2021/08/29 10:06:34;;;;;;;9.05;2.50;;;18.80;79.40;;;;;;5013184;28;20508;-90
2021/08/29 10:09:02;;;;;;;16.48;3.40;;;18.90;78.80;;;;;;5045302;28;20443;-90
2021/08/29 10:11:31;;;;;;;10.05;2.92;;;18.90;78.20;;;;;;5012832;28;20538;-90
2021/08/29 10:13:59;;;;;;;10.27;2.92;;;18.90;77.80;;;;;;5011920;28;20069;-90
2021/08/29 10:16:27;;;;;;;16.50;3.05;;;18.90;77.40;;;;;;5029859;28;20056;-89
2021/08/29 10:18:56;;;;;;;7.85;2.80;;;18.90;77.00;;;;;;5052910;28;20111;-90
2021/08/29 10:21:27;;;;;;;13.48;2.95;;;18.80;77.00;;;;;;5019785;28;20053;-91
2021/08/29 10:23:57;;;;;;;12.15;3.15;;;18.70;77.00;;;;;;5044740;28;20045;-90
2021/08/29 10:26:25;;;;;;;6.82;2.72;;;18.70;77.10;;;;;;5045570;28;20184;-92
2021/08/29 10:29:04;;;;;;;9.95;2.90;;;18.60;77.00;;;;;;5026987;28;20056;-90
2021/08/29 10:31:38;;;;;;;10.60;2.63;;;18.60;76.70;;;;;;5047461;28;20061;-88
2021/08/29 10:34:06;;;;;;;9.70;2.58;;;18.50;76.70;;;;;;5018971;28;20112;-91
2021/08/29 10:36:35;;;;;;;7.32;2.67;;;18.40;77.00;;;;;;5020007;28;20057;-89
2021/08/29 10:39:02;;;;;;;9.07;3.17;;;18.40;77.00;;;;;;5059925;28;20113;-90
2021/08/29 10:41:31;;;;;;;8.43;2.60;;;18.40;77.20;;;;;;5027594;28;20104;-90
2021/08/29 10:43:58;;;;;;;9.50;2.40;;;18.40;77.40;;;;;;5012777;28;20050;-89
2021/08/29 10:46:25;;;;;;;11.43;3.30;;;18.40;77.40;;;;;;5029267;28;20050;-93
2021/08/29 10:48:54;;;;;;;12.27;3.15;;;18.40;77.30;;;;;;5053215;28;20045;-90
2021/08/29 10:51:25;;;;;;;11.57;2.83;;;18.40;77.10;;;;;;5019843;28;20061;-89
2021/08/29 10:53:55;;;;;;;9.55;3.28;;;18.40;77.10;;;;;;5049529;28;20111;-91
2021/08/29 10:56:22;;;;;;;9.23;3.03;;;18.40;77.40;;;;;;5016960;28;20415;-89
2021/08/29 10:59:07;;;;;;;8.05;2.60;;;18.60;77.70;;;;;;5035291;28;20045;-90
2021/08/29 11:01:39;;;;;;;15.25;2.85;;;18.70;76.50;;;;;;5035576;28;20393;-89
2021/08/29 11:04:21;;;;;;;10.65;3.15;;;18.90;75.90;;;;;;5031922;28;20049;-91
2021/08/29 11:06:51;;;;;;;9.45;2.63;;;18.90;75.60;;;;;;5031870;28;20045;-90
2021/08/29 11:09:40;;;;;;;8.82;2.90;;;18.90;75.60;;;;;;5028975;28;20053;-92
2021/08/29 11:12:27;;;;;;;12.73;3.28;;;18.90;75.80;;;;;;5015186;28;20458;-90
2021/08/29 11:14:56;;;;;;;11.90;3.25;;;18.80;75.80;;;;;;5031403;28;20057;-91
2021/08/29 11:17:24;;;;;;;8.30;3.00;;;18.70;75.80;;;;;;5015862;28;20054;-89
2021/08/29 11:20:09;;;;;;;14.18;3.15;;;18.70;75.80;;;;;;5015863;28;20046;-92
2021/08/29 11:22:45;;;;;;;12.20;3.60;;;18.60;75.80;;;;;;5065750;28;20103;-93
2021/08/29 11:25:28;;;;;;;8.38;2.88;;;18.50;76.10;;;;;;5052794;28;20046;-88
2021/08/29 11:28:00;;;;;;;13.07;3.17;;;18.60;76.60;;;;;;5021216;28;20049;-91
2021/08/29 11:30:47;;;;;;;7.22;2.78;;;18.70;76.90;;;;;;5051956;28;20049;-88
2021/08/29 11:33:27;;;;;;;8.32;2.58;;;18.80;76.50;;;;;;5020189;28;20136;-89
2021/08/29 11:36:01;;;;;;;8.73;2.83;;;18.90;75.60;;;;;;5019447;28;20054;-90
2021/08/29 11:38:36;;;;;;;8.65;2.83;;;19.00;75.50;;;;;;5032379;28;20049;-89
2021/08/29 11:41:42;;;;;;;10.65;3.17;;;19.20;75.10;;;;;;5060540;28;20464;-90
2021/08/29 11:44:19;;;;;;;12.15;2.63;;;19.40;74.90;;;;;;5035730;28;20084;-88
2021/08/29 11:46:52;;;;;;;5.55;2.30;;;19.60;73.20;;;;;;5016368;28;20050;-89
2021/08/29 11:49:21;;;;;;;6.60;2.60;;;19.80;72.20;;;;;;5027082;28;20069;-90
2021/08/29 11:51:50;;;;;;;11.52;3.20;;;20.00;71.30;;;;;;5035168;28;20045;-88
2021/08/29 11:54:20;;;;;;;9.15;2.75;;;20.30;70.90;;;;;;5034013;28;20064;-89
2021/08/29 11:56:47;;;;;;;10.02;2.60;;;20.50;70.70;;;;;;5063439;28;20095;-89
2021/08/29 11:59:34;;;;;;;7.40;2.80;;;20.50;70.10;;;;;;5014571;28;20050;-88
2021/08/29 12:02:10;;;;;;;6.85;2.70;;;20.60;69.40;;;;;;5015307;28;20460;-89
2021/08/29 12:04:43;;;;;;;10.07;2.97;;;20.50;69.50;;;;;;5060257;28;20068;-88
2021/08/29 12:07:18;;;;;;;7.67;2.60;;;20.50;69.40;;;;;;5018358;28;20503;-90
2021/08/29 12:09:47;;;;;;;10.10;2.90;;;20.40;69.10;;;;;;5056480;28;20128;-88
2021/08/29 12:12:22;;;;;;;10.02;2.90;;;20.40;69.30;;;;;;5013877;28;20060;-90
2021/08/29 12:15:03;;;;;;;15.95;2.70;;;20.30;69.50;;;;;;5012380;28;20046;-89
2021/08/29 12:17:56;;;;;;;8.18;2.58;;;20.20;69.70;;;;;;5015997;28;20057;-90
2021/08/29 12:20:55;;;;;;;11.63;2.53;;;20.10;70.00;;;;;;5015884;28;20052;-91
2021/08/29 12:23:25;;;;;;;9.85;2.85;;;19.90;70.30;;;;;;5015332;28;20054;-91
2021/08/29 12:26:00;;;;;;;8.50;2.67;;;19.90;70.40;;;;;;5015132;28;20092;-90
2021/08/29 12:28:28;;;;;;;6.38;2.60;;;19.80;70.10;;;;;;5046780;28;20050;-90
2021/08/29 12:30:56;;;;;;;8.13;2.53;;;19.70;70.20;;;;;;5027167;28;20100;-90
2021/08/29 12:33:25;;;;;;;7.00;2.60;;;19.70;70.30;;;;;;5031024;28;20056;-91
2021/08/29 12:35:52;;;;;;;8.95;2.70;;;19.60;70.40;;;;;;5015367;28;20089;-91
2021/08/29 12:38:26;;;;;;;13.00;2.88;;;19.60;70.00;;;;;;5013951;28;20562;-90
2021/08/29 12:40:54;;;;;;;;;;;19.60;70.00;;;;;;5014744;28;20100;-91
2021/08/29 12:43:23;;;;;;;6.68;2.83;;;19.50;70.50;;;;;;5014133;28;19929;-93
2021/08/29 12:45:50;;;;;;;9.50;3.15;;;19.60;69.70;;;;;;5047072;28;20381;-89
2021/08/29 12:48:18;;;;;;;8.85;2.95;;;19.60;70.10;;;;;;5014727;28;20046;-89
2021/08/29 12:51:01;;;;;;;8.73;2.60;;;19.80;70.20;;;;;;5017702;28;20059;-89
2021/08/29 12:53:30;;;;;;;7.78;2.63;;;19.90;70.50;;;;;;5034101;28;20512;-90